createdAt,value
2018-03-26T00:02:03.921Z,-3.20
2018-03-26T00:04:31.524Z,-3.20
2018-03-26T00:07:00.588Z,-3.20
2018-03-26T00:09:28.146Z,-3.20
2018-03-26T00:11:55.797Z,-3.20
2018-03-26T00:14:23.394Z,-3.30
2018-03-26T00:16:50.948Z,-3.30
2018-03-26T00:19:18.530Z,-3.20
2018-03-26T00:21:46.176Z,-3.40
2018-03-26T00:24:13.738Z,-3.40
2018-03-26T00:26:41.334Z,-3.40
2018-03-26T00:29:09.025Z,-3.30
2018-03-26T00:31:36.586Z,-3.50
2018-03-26T00:34:04.166Z,-3.50
2018-03-26T00:36:31.785Z,-3.40
2018-03-26T00:38:59.334Z,-3.50
2018-03-26T00:41:26.917Z,-3.80
2018-03-26T00:43:54.632Z,-3.80
2018-03-26T00:46:22.994Z,-3.60
2018-03-26T00:48:52.097Z,-3.60
2018-03-26T00:51:19.717Z,-3.60
2018-03-26T00:53:47.985Z,-3.70
2018-03-26T00:56:15.562Z,-3.70
2018-03-26T00:58:43.117Z,-3.90
2018-03-26T01:01:10.673Z,-3.90
2018-03-26T01:03:38.255Z,-3.70
2018-03-26T01:06:05.806Z,-3.70
2018-03-26T01:08:33.420Z,-3.90
2018-03-26T01:11:01.304Z,-3.90
2018-03-26T01:13:28.889Z,-3.90
2018-03-26T01:15:56.439Z,-4.00
2018-03-26T01:18:24.034Z,-4.10
2018-03-26T01:20:51.581Z,-4.00
2018-03-26T01:23:19.134Z,-3.90
2018-03-26T01:25:46.782Z,-3.90
2018-03-26T01:28:14.366Z,-3.80
2018-03-26T01:30:42.688Z,-4.10
2018-03-26T01:33:10.266Z,-4.10
2018-03-26T01:35:37.813Z,-4.20
2018-03-26T01:38:05.363Z,-4.10
2018-03-26T01:40:32.941Z,-4.00
2018-03-26T01:43:00.485Z,-4.10
2018-03-26T01:45:28.133Z,-4.10
2018-03-26T01:47:55.742Z,-4.20
2018-03-26T01:50:24.813Z,-4.30
2018-03-26T01:52:52.361Z,-4.30
2018-03-26T01:55:20.017Z,-4.20
2018-03-26T01:57:47.569Z,-4.20
2018-03-26T02:00:15.337Z,-4.10
2018-03-26T02:02:42.917Z,-4.20
2018-03-26T02:05:10.469Z,-4.40
2018-03-26T02:07:38.013Z,-4.50
2018-03-26T02:10:05.605Z,-4.40
2018-03-26T02:12:33.153Z,-4.30
2018-03-26T02:15:00.714Z,-4.20
2018-03-26T02:17:28.301Z,-4.30
2018-03-26T02:19:55.853Z,-4.20
2018-03-26T02:22:24.170Z,-4.60
2018-03-26T02:24:51.755Z,-4.60
2018-03-26T02:27:19.603Z,-4.40
2018-03-26T02:29:47.213Z,-4.40
2018-03-26T02:32:14.800Z,-4.40
2018-03-26T02:34:42.351Z,-4.40
2018-03-26T02:37:09.903Z,-4.40
2018-03-26T02:39:38.253Z,-4.50
2018-03-26T02:42:05.810Z,-4.50
2018-03-26T02:44:33.357Z,-4.80
2018-03-26T02:47:01.141Z,-4.60
2018-03-26T02:49:28.691Z,-4.60
2018-03-26T02:51:56.245Z,-4.60
2018-03-26T02:54:24.078Z,-4.50
2018-03-26T02:56:51.633Z,-4.60
2018-03-26T02:59:19.182Z,-4.40
2018-03-26T03:01:46.778Z,-4.40
2018-03-26T03:04:14.330Z,-4.60
2018-03-26T03:06:41.893Z,-4.50
2018-03-26T03:09:09.537Z,-4.60
2018-03-26T03:11:37.085Z,-4.50
2018-03-26T03:14:04.641Z,-4.60
2018-03-26T03:16:32.239Z,-4.70
2018-03-26T03:18:59.789Z,-4.70
2018-03-26T03:21:27.342Z,-4.50
2018-03-26T03:23:54.922Z,-4.50
2018-03-26T03:26:22.482Z,-4.40
2018-03-26T03:28:50.095Z,-4.60
2018-03-26T03:31:17.821Z,-4.70
2018-03-26T03:33:46.134Z,-4.60
2018-03-26T03:36:13.688Z,-4.70
2018-03-26T03:38:41.282Z,-4.60
2018-03-26T03:41:08.833Z,-4.50
2018-03-26T03:43:36.381Z,-4.60
2018-03-26T03:46:03.981Z,-4.50
2018-03-26T03:48:32.393Z,-4.80
2018-03-26T03:50:59.948Z,-4.80
2018-03-26T03:53:27.526Z,-4.70
2018-03-26T03:55:55.388Z,-4.60
2018-03-26T03:58:22.944Z,-4.70
2018-03-26T04:00:50.538Z,-4.70
2018-03-26T04:03:18.206Z,-4.80
2018-03-26T04:05:45.749Z,-5.00
2018-03-26T04:08:13.359Z,-5.00
2018-03-26T04:10:40.965Z,-4.80
2018-03-26T04:13:08.519Z,-4.70
2018-03-26T04:15:36.264Z,-4.80
2018-03-26T04:18:03.925Z,-4.90
2018-03-26T04:20:31.687Z,-4.90
2018-03-26T04:22:59.284Z,-4.90
2018-03-26T04:25:26.838Z,-4.80
2018-03-26T04:27:54.565Z,-4.80
2018-03-26T04:30:22.158Z,-4.80
2018-03-26T04:32:49.717Z,-4.90
2018-03-26T04:35:17.281Z,-5.00
2018-03-26T04:37:44.866Z,-4.90
2018-03-26T04:40:13.178Z,-4.90
2018-03-26T04:42:40.730Z,-4.90
2018-03-26T04:45:08.354Z,-4.90
2018-03-26T04:47:36.086Z,-4.80
2018-03-26T04:50:03.710Z,-4.90
2018-03-26T04:52:31.319Z,-5.10
2018-03-26T04:54:58.873Z,-4.90
2018-03-26T04:57:26.419Z,-4.80
2018-03-26T04:59:54.018Z,-4.70
2018-03-26T05:02:22.337Z,-4.60
2018-03-26T05:04:49.890Z,-4.70
2018-03-26T05:07:17.473Z,-4.70
2018-03-26T05:09:45.175Z,-4.70
2018-03-26T05:12:12.845Z,-4.70
2018-03-26T05:14:40.569Z,-4.70
2018-03-26T05:17:08.190Z,-4.60
2018-03-26T05:19:35.755Z,-4.50
2018-03-26T05:22:03.366Z,-4.60
2018-03-26T05:24:31.692Z,-4.60
2018-03-26T05:26:59.295Z,-4.70
2018-03-26T05:29:27.823Z,-4.50
2018-03-26T05:31:55.382Z,-4.50
2018-03-26T05:34:22.942Z,-4.50
2018-03-26T05:36:50.568Z,-4.60
2018-03-26T05:39:18.896Z,-4.40
2018-03-26T05:41:46.462Z,-4.40
2018-03-26T05:44:14.057Z,-4.20
2018-03-26T05:46:41.610Z,-3.90
2018-03-26T05:49:09.921Z,-3.80
2018-03-26T05:51:37.798Z,-3.80
2018-03-26T05:54:05.377Z,-3.70
2018-03-26T05:56:32.945Z,-3.60
2018-03-26T05:59:00.600Z,-3.60
2018-03-26T06:01:28.293Z,-3.30
2018-03-26T06:03:55.866Z,-3.20
2018-03-26T06:06:23.526Z,-2.90
2018-03-26T06:08:51.099Z,-2.90
2018-03-26T06:11:18.657Z,-2.90
2018-03-26T06:13:46.260Z,-2.60
2018-03-26T06:16:14.783Z,-2.50
2018-03-26T06:18:42.638Z,-2.50
2018-03-26T06:21:11.006Z,-2.20
2018-03-26T06:23:38.593Z,-2.20
2018-03-26T06:26:06.173Z,-2.20
2018-03-26T06:28:33.914Z,-2.10
2018-03-26T06:31:01.507Z,-1.90
2018-03-26T06:33:29.068Z,-1.80
2018-03-26T06:35:56.669Z,-1.80
2018-03-26T06:38:41.666Z,-1.70
2018-03-26T06:41:09.410Z,-1.70
2018-03-26T06:43:36.962Z,-1.70
2018-03-26T06:46:04.525Z,-1.50
2018-03-26T06:48:32.123Z,-1.40
2018-03-26T06:50:59.678Z,-1.30
2018-03-26T06:53:27.538Z,-1.30
2018-03-26T06:55:55.178Z,-1.40
2018-03-26T06:58:22.738Z,-1.20
2018-03-26T07:00:50.294Z,-1.20
2018-03-26T07:03:17.892Z,-1.10
2018-03-26T07:05:45.446Z,-1.10
2018-03-26T07:08:12.993Z,-1.10
2018-03-26T07:10:40.647Z,-1.10
2018-03-26T07:13:08.194Z,-1.20
2018-03-26T07:15:35.752Z,-1.10
2018-03-26T07:18:03.358Z,-1.10
2018-03-26T07:20:31.081Z,-1.00
2018-03-26T07:22:58.782Z,-1.00
2018-03-26T07:25:26.376Z,-0.90
2018-03-26T07:27:53.928Z,-0.80
2018-03-26T07:30:22.321Z,-0.60
2018-03-26T07:32:50.002Z,-0.60
2018-03-26T07:35:17.550Z,-0.60
2018-03-26T07:37:45.128Z,-0.60
2018-03-26T07:40:12.753Z,-0.60
2018-03-26T07:42:40.852Z,-0.50
2018-03-26T07:45:08.409Z,-0.50
2018-03-26T07:47:36.013Z,-0.40
2018-03-26T07:50:03.823Z,-0.30
2018-03-26T07:52:31.567Z,-0.10
2018-03-26T07:54:59.464Z,-0.20
2018-03-26T07:57:27.036Z,-0.20
2018-03-26T07:59:54.606Z,-0.20
2018-03-26T08:02:22.956Z,-0.20
2018-03-26T08:04:50.513Z,-0.10
2018-03-26T08:07:18.079Z,0.00
2018-03-26T08:09:45.676Z,0.00
2018-03-26T08:12:13.414Z,0.00
2018-03-26T08:14:40.982Z,0.10
2018-03-26T08:17:08.742Z,0.20
2018-03-26T08:19:36.289Z,0.20
2018-03-26T08:22:03.909Z,0.30
2018-03-26T08:24:31.503Z,0.30
2018-03-26T08:26:59.046Z,0.40
2018-03-26T08:29:26.691Z,0.50
2018-03-26T08:31:54.270Z,0.70
2018-03-26T08:34:21.832Z,0.70
2018-03-26T08:36:49.590Z,0.80
2018-03-26T08:39:17.245Z,0.90
2018-03-26T08:41:44.795Z,0.80
2018-03-26T08:44:12.538Z,0.80
2018-03-26T08:46:40.609Z,0.80
2018-03-26T08:49:08.234Z,0.90
2018-03-26T08:51:35.783Z,1.00
2018-03-26T08:54:03.373Z,1.10
2018-03-26T08:56:31.307Z,1.00
2018-03-26T08:58:58.861Z,1.10
2018-03-26T09:01:26.446Z,1.20
2018-03-26T09:03:54.885Z,1.40
2018-03-26T09:06:22.460Z,1.40
2018-03-26T09:08:50.057Z,1.50
2018-03-26T09:11:18.371Z,1.90
2018-03-26T09:13:45.934Z,1.80
2018-03-26T09:16:13.526Z,1.90
2018-03-26T09:18:41.074Z,2.00
2018-03-26T09:21:08.934Z,2.10
2018-03-26T09:23:36.797Z,2.20
2018-03-26T09:26:04.459Z,2.40
2018-03-26T09:28:31.989Z,2.70
2018-03-26T09:30:59.802Z,2.90
2018-03-26T09:33:27.350Z,3.00
2018-03-26T09:35:55.392Z,3.10
2018-03-26T09:38:23.002Z,3.30
2018-03-26T09:40:51.661Z,3.50
2018-03-26T09:43:19.548Z,3.50
2018-03-26T09:45:48.390Z,3.70
2018-03-26T09:48:16.087Z,3.70
2018-03-26T09:50:44.406Z,4.10
2018-03-26T09:53:12.298Z,4.10
2018-03-26T09:55:39.855Z,4.20
2018-03-26T09:58:07.689Z,4.30
2018-03-26T10:00:41.147Z,4.30
2018-03-26T10:03:08.733Z,4.50
2018-03-26T10:05:36.294Z,4.60
2018-03-26T10:08:04.953Z,4.60
2018-03-26T10:10:33.267Z,4.60
2018-03-26T10:13:01.281Z,4.50
2018-03-26T10:15:29.025Z,4.80
2018-03-26T10:17:56.922Z,4.90
2018-03-26T10:20:25.086Z,5.10
2018-03-26T10:22:52.799Z,4.80
2018-03-26T10:25:20.399Z,5.10
2018-03-26T10:27:48.861Z,5.30
2018-03-26T10:30:16.798Z,5.40
2018-03-26T10:32:44.771Z,5.60
2018-03-26T10:35:12.377Z,5.80
2018-03-26T10:37:40.149Z,5.80
2018-03-26T10:40:07.821Z,5.80
2018-03-26T10:42:35.370Z,5.90
2018-03-26T10:47:35.974Z,5.90
2018-03-26T10:50:03.566Z,5.80
2018-03-26T10:52:31.294Z,5.90
2018-03-26T10:54:59.045Z,6.00
2018-03-26T10:57:26.646Z,6.10
2018-03-26T10:59:54.569Z,6.10
2018-03-26T11:02:22.114Z,6.20
2018-03-26T11:04:50.778Z,6.00
2018-03-26T11:07:18.327Z,6.00
2018-03-26T11:09:46.033Z,6.00
2018-03-26T11:12:13.820Z,5.90
2018-03-26T11:14:41.566Z,6.00
2018-03-26T11:17:09.114Z,6.10
2018-03-26T11:19:37.242Z,6.10
2018-03-26T11:22:06.473Z,6.10
2018-03-26T11:24:34.790Z,6.20
2018-03-26T11:27:02.396Z,6.10
2018-03-26T11:29:30.712Z,6.10
2018-03-26T11:31:58.254Z,6.10
2018-03-26T11:34:26.035Z,6.00
2018-03-26T11:36:53.841Z,6.00
2018-03-26T11:39:22.186Z,6.00
2018-03-26T11:41:49.984Z,5.90
2018-03-26T11:44:17.653Z,6.10
2018-03-26T11:49:20.177Z,6.00
2018-03-26T11:51:48.000Z,6.00
2018-03-26T11:54:16.488Z,6.00
2018-03-26T11:56:44.716Z,6.00
2018-03-26T11:59:12.342Z,5.60
2018-03-26T12:01:40.462Z,5.40
2018-03-26T12:04:08.312Z,5.30
2018-03-26T12:06:36.854Z,5.00
2018-03-26T12:09:05.296Z,5.00
2018-03-26T12:11:32.954Z,4.90
2018-03-26T12:14:00.916Z,4.90
2018-03-26T12:16:28.908Z,4.80
2018-03-26T12:18:56.779Z,4.80
2018-03-26T12:21:24.362Z,4.70
2018-03-26T12:24:03.767Z,4.60
2018-03-26T12:26:31.325Z,4.60
2018-03-26T12:29:12.202Z,4.70
2018-03-26T12:31:40.013Z,4.70
2018-03-26T12:34:19.563Z,4.70
2018-03-26T12:36:47.243Z,4.70
2018-03-26T12:39:15.031Z,4.70
2018-03-26T12:41:43.197Z,4.80
2018-03-26T12:44:11.672Z,4.70
2018-03-26T12:46:44.384Z,4.80
2018-03-26T12:49:11.955Z,4.80
2018-03-26T12:51:51.508Z,5.00
2018-03-26T12:54:19.300Z,5.10
2018-03-26T12:56:46.986Z,5.10
2018-03-26T12:59:14.873Z,5.10
2018-03-26T13:01:55.219Z,5.30
2018-03-26T13:04:23.675Z,5.40
2018-03-26T13:06:51.689Z,5.40
2018-03-26T13:09:19.358Z,5.30
2018-03-26T13:11:47.327Z,5.30
2018-03-26T13:14:15.361Z,5.40
2018-03-26T13:16:42.938Z,5.40
2018-03-26T13:19:10.727Z,5.30
2018-03-26T13:21:38.564Z,5.30
2018-03-26T13:24:07.096Z,5.20
2018-03-26T13:26:34.919Z,5.20
2018-03-26T13:29:03.438Z,5.40
2018-03-26T13:31:31.029Z,5.40
2018-03-26T13:33:58.618Z,5.50
2018-03-26T13:36:26.525Z,5.50
2018-03-26T13:38:54.087Z,5.50
2018-03-26T13:41:22.013Z,5.60
2018-03-26T13:43:49.583Z,5.70
2018-03-26T13:46:17.406Z,5.70
2018-03-26T13:48:46.114Z,5.80
2018-03-26T13:51:14.532Z,5.80
2018-03-26T13:53:42.218Z,5.80
2018-03-26T13:56:09.809Z,5.70
2018-03-26T13:58:37.545Z,5.60
2018-03-26T14:01:05.390Z,5.60
2018-03-26T14:03:33.917Z,5.70
2018-03-26T14:06:01.478Z,5.70
2018-03-26T14:08:40.955Z,5.70
2018-03-26T14:11:20.128Z,5.70
2018-03-26T14:13:59.737Z,5.70
2018-03-26T14:16:39.072Z,5.70
2018-03-26T14:19:06.882Z,5.80
2018-03-26T14:21:34.506Z,5.70
2018-03-26T14:24:02.223Z,5.60
2018-03-26T14:26:30.270Z,5.60
2018-03-26T14:28:58.211Z,5.60
2018-03-26T14:31:25.787Z,5.50
2018-03-26T14:33:53.408Z,5.50
2018-03-26T14:36:21.349Z,5.50
2018-03-26T14:38:48.971Z,5.40
2018-03-26T14:41:16.656Z,5.40
2018-03-26T14:43:44.289Z,5.30
2018-03-26T14:46:11.865Z,5.30
2018-03-26T14:48:40.539Z,5.20
2018-03-26T14:51:08.106Z,5.20
2018-03-26T14:53:35.822Z,5.20
2018-03-26T14:56:03.430Z,5.20
2018-03-26T14:58:31.052Z,5.20
2018-03-26T15:00:58.623Z,5.20
2018-03-26T15:03:26.261Z,5.10
2018-03-26T15:05:54.349Z,5.20
2018-03-26T15:08:22.400Z,5.20
2018-03-26T15:10:50.088Z,5.10
2018-03-26T15:13:17.969Z,5.00
2018-03-26T15:15:45.597Z,5.00
2018-03-26T15:18:13.800Z,5.00
2018-03-26T15:20:43.351Z,5.10
2018-03-26T15:23:11.266Z,5.10
2018-03-26T15:25:39.096Z,5.10
2018-03-26T15:28:06.681Z,5.20
2018-03-26T15:30:34.474Z,5.20
2018-03-26T15:33:02.561Z,5.10
2018-03-26T15:35:30.455Z,5.00
2018-03-26T15:37:58.027Z,4.90
2018-03-26T15:40:25.766Z,4.90
2018-03-26T15:42:53.462Z,4.80
2018-03-26T15:45:21.277Z,4.70
2018-03-26T15:47:49.106Z,4.70
2018-03-26T15:50:17.454Z,4.60
2018-03-26T15:52:45.014Z,4.60
2018-03-26T15:55:12.776Z,4.60
2018-03-26T15:57:40.348Z,4.60
2018-03-26T16:00:07.970Z,4.60
2018-03-26T16:02:41.277Z,4.50
2018-03-26T16:05:09.035Z,4.60
2018-03-26T16:07:36.763Z,4.50
2018-03-26T16:10:05.358Z,4.40
2018-03-26T16:12:32.949Z,4.40
2018-03-26T16:15:00.759Z,4.30
2018-03-26T16:17:29.626Z,4.30
2018-03-26T16:19:57.731Z,4.20
2018-03-26T16:22:26.352Z,4.30
2018-03-26T16:24:54.212Z,4.30
2018-03-26T16:27:21.881Z,4.30
2018-03-26T16:29:49.824Z,4.20
2018-03-26T16:32:18.410Z,4.20
2018-03-26T16:34:46.058Z,4.20
2018-03-26T16:37:13.957Z,4.20
2018-03-26T16:39:41.595Z,4.00
2018-03-26T16:45:13.019Z,4.00
2018-03-26T16:47:40.940Z,3.90
2018-03-26T16:50:08.502Z,3.80
2018-03-26T16:52:36.264Z,3.70
2018-03-26T16:55:03.887Z,3.60
2018-03-26T16:57:32.515Z,3.60
2018-03-26T17:00:00.117Z,3.60
2018-03-26T17:02:27.836Z,3.50
2018-03-26T17:04:55.676Z,3.50
2018-03-26T17:07:23.486Z,3.40
2018-03-26T17:09:51.251Z,3.40
2018-03-26T17:12:19.298Z,3.40
2018-03-26T17:14:46.903Z,3.30
2018-03-26T17:17:14.670Z,3.30
2018-03-26T17:19:43.025Z,3.30
2018-03-26T17:22:10.675Z,3.20
2018-03-26T17:24:38.402Z,3.20
2018-03-26T17:27:06.189Z,3.10
2018-03-26T17:29:33.790Z,3.10
2018-03-26T17:32:02.353Z,3.00
2018-03-26T17:34:30.292Z,3.00
2018-03-26T17:36:58.033Z,2.90
2018-03-26T17:39:25.659Z,2.90
2018-03-26T17:41:53.410Z,2.90
2018-03-26T17:44:21.116Z,2.90
2018-03-26T17:46:48.724Z,2.80
2018-03-26T17:49:16.466Z,2.80
2018-03-26T17:51:44.964Z,2.80
2018-03-26T17:54:12.601Z,2.80
2018-03-26T17:56:40.198Z,2.80
2018-03-26T17:59:07.907Z,2.70
2018-03-26T18:01:35.475Z,2.60
2018-03-26T18:04:03.283Z,2.70
2018-03-26T18:06:30.934Z,2.70
2018-03-26T18:08:58.769Z,2.60
2018-03-26T18:11:26.473Z,2.60
2018-03-26T18:13:54.134Z,2.60
2018-03-26T18:16:22.522Z,2.50
2018-03-26T18:18:50.499Z,2.50
2018-03-26T18:21:19.024Z,2.40
2018-03-26T18:23:46.800Z,2.40
2018-03-26T18:26:14.473Z,2.40
2018-03-26T18:28:42.559Z,2.40
2018-03-26T18:31:10.391Z,2.40
2018-03-26T18:33:37.972Z,2.40
2018-03-26T18:36:05.571Z,2.30
2018-03-26T18:38:33.238Z,2.30
2018-03-26T18:41:00.835Z,2.20
2018-03-26T18:43:28.470Z,2.20
2018-03-26T18:45:56.232Z,2.20
2018-03-26T18:48:24.160Z,2.30
2018-03-26T18:50:52.328Z,2.20
2018-03-26T18:53:20.081Z,2.20
2018-03-26T18:55:48.326Z,2.20
2018-03-26T18:58:16.097Z,2.10
2018-03-26T19:00:43.682Z,2.10
2018-03-26T19:03:11.281Z,2.10
2018-03-26T19:05:38.907Z,2.20
2018-03-26T19:08:07.999Z,2.00
2018-03-26T19:10:35.769Z,2.00
2018-03-26T19:13:03.553Z,2.00
2018-03-26T19:15:31.194Z,2.00
2018-03-26T19:17:59.017Z,2.00
2018-03-26T19:20:27.060Z,2.00
2018-03-26T19:22:54.654Z,2.10
2018-03-26T19:25:22.474Z,2.10
2018-03-26T19:27:50.150Z,2.10
2018-03-26T19:30:17.743Z,2.00
2018-03-26T19:32:45.668Z,2.00
2018-03-26T19:35:13.318Z,1.90
2018-03-26T19:37:41.261Z,1.90
2018-03-26T19:40:09.742Z,1.90
2018-03-26T19:42:38.156Z,1.90
2018-03-26T19:45:06.044Z,1.90
2018-03-26T19:47:33.836Z,1.80
2018-03-26T19:50:01.439Z,1.80
2018-03-26T19:52:29.007Z,1.80
2018-03-26T19:54:56.711Z,1.80
2018-03-26T19:57:24.389Z,1.70
2018-03-26T19:59:52.417Z,1.70
2018-03-26T20:02:20.114Z,1.70
2018-03-26T20:04:48.007Z,1.80
2018-03-26T20:07:16.355Z,1.50
2018-03-26T20:09:44.147Z,1.50
2018-03-26T20:12:12.538Z,1.60
2018-03-26T20:14:40.457Z,1.60
2018-03-26T20:17:08.052Z,1.70
2018-03-26T20:19:36.364Z,1.70
2018-03-26T20:22:03.948Z,1.70
2018-03-26T20:24:31.519Z,1.80
2018-03-26T20:27:00.577Z,1.90
2018-03-26T20:29:28.339Z,1.90
2018-03-26T20:31:56.167Z,1.80
2018-03-26T20:34:24.593Z,1.60
2018-03-26T20:36:53.065Z,1.60
2018-03-26T20:39:20.671Z,1.60
2018-03-26T20:41:48.297Z,1.60
2018-03-26T20:44:15.873Z,1.60
2018-03-26T20:46:44.122Z,1.70
2018-03-26T20:49:11.871Z,1.70
2018-03-26T20:51:39.641Z,1.60
2018-03-26T20:54:07.228Z,1.60
2018-03-26T20:56:35.008Z,1.40
2018-03-26T20:59:03.033Z,1.50
2018-03-26T21:01:30.638Z,1.50
2018-03-26T21:03:59.053Z,1.40
2018-03-26T21:06:26.645Z,1.40
2018-03-26T21:08:54.197Z,1.50
2018-03-26T21:11:21.794Z,1.50
2018-03-26T21:13:50.127Z,1.50
2018-03-26T21:16:17.918Z,1.50
2018-03-26T21:18:45.925Z,1.60
2018-03-26T21:21:13.481Z,1.50
2018-03-26T21:23:41.813Z,1.40
2018-03-26T21:26:09.475Z,1.50
2018-03-26T21:28:37.042Z,1.40
2018-03-26T21:31:05.329Z,1.40
2018-03-26T21:33:33.695Z,1.30
2018-03-26T21:36:03.185Z,1.40
2018-03-26T21:38:30.788Z,1.30
2018-03-26T21:40:59.365Z,1.40
2018-03-26T21:43:26.929Z,1.40
2018-03-26T21:45:55.300Z,1.30
2018-03-26T21:48:23.372Z,1.30
2018-03-26T21:50:50.970Z,1.20
2018-03-26T21:53:18.541Z,1.20
2018-03-26T21:55:46.710Z,1.20
2018-03-26T21:58:14.269Z,1.10
2018-03-26T22:00:41.923Z,1.00
2018-03-26T22:03:09.767Z,1.00
2018-03-26T22:05:37.496Z,0.90
2018-03-26T22:08:05.254Z,0.90
2018-03-26T22:10:33.391Z,0.80
2018-03-26T22:13:01.025Z,0.90
2018-03-26T22:15:28.766Z,0.80
2018-03-26T22:17:56.650Z,0.80
2018-03-26T22:20:24.247Z,0.80
2018-03-26T22:22:52.156Z,0.70
2018-03-26T22:25:20.504Z,0.70
2018-03-26T22:27:48.534Z,0.70
2018-03-26T22:30:16.627Z,0.60
2018-03-26T22:32:44.245Z,0.60
2018-03-26T22:35:11.820Z,0.60
2018-03-26T22:37:39.384Z,0.70
2018-03-26T22:40:07.042Z,0.70
2018-03-26T22:42:34.634Z,0.70
2018-03-26T22:45:02.281Z,0.70
2018-03-26T22:47:30.270Z,0.70
2018-03-26T22:49:57.829Z,0.60
2018-03-26T22:52:25.554Z,0.60
2018-03-26T22:54:53.154Z,0.50
2018-03-26T22:57:20.930Z,0.40
2018-03-26T22:59:48.595Z,0.50
2018-03-26T23:02:16.206Z,0.40
2018-03-26T23:04:44.126Z,0.40
2018-03-26T23:07:12.070Z,0.30
2018-03-26T23:09:39.958Z,0.10
2018-03-26T23:12:07.914Z,0.10
2018-03-26T23:14:35.538Z,-0.10
2018-03-26T23:17:03.217Z,-0.30
2018-03-26T23:19:31.012Z,-0.40
2018-03-26T23:21:58.987Z,-0.60
2018-03-26T23:24:26.841Z,-0.70
2018-03-26T23:26:54.598Z,-0.70
2018-03-26T23:29:22.166Z,-0.60
2018-03-26T23:31:49.775Z,-0.60
2018-03-26T23:34:17.335Z,-0.80
2018-03-26T23:36:45.232Z,-0.80
2018-03-26T23:39:12.841Z,-0.60
2018-03-26T23:41:40.394Z,-0.50
2018-03-26T23:44:08.179Z,-0.50
2018-03-26T23:46:35.858Z,-0.50
2018-03-26T23:49:03.551Z,-0.60
2018-03-26T23:51:31.115Z,-0.60
2018-03-26T23:53:58.896Z,-0.50
2018-03-26T23:56:26.487Z,-0.50
2018-03-26T23:58:54.137Z,-0.50
